createdAt,value
2022-08-25T00:04:11.382Z,2.10
2022-08-25T00:09:20.143Z,1.88
2022-08-25T00:14:26.722Z,2.00
2022-08-25T00:19:33.304Z,2.20
2022-08-25T00:24:38.505Z,2.30
2022-08-25T00:29:40.839Z,2.15
2022-08-25T00:34:43.227Z,2.28
2022-08-25T00:39:47.153Z,2.17
2022-08-25T00:44:50.040Z,2.50
2022-08-25T00:49:56.282Z,2.35
2022-08-25T00:55:08.075Z,2.40
2022-08-25T01:00:16.718Z,2.53
2022-08-25T01:05:19.603Z,2.70
2022-08-25T01:10:24.559Z,2.05
2022-08-25T01:15:28.191Z,2.20
2022-08-25T01:20:32.427Z,2.92
2022-08-25T01:25:46.065Z,2.50
2022-08-25T01:30:49.163Z,2.90
2022-08-25T01:35:51.575Z,2.40
2022-08-25T01:40:55.433Z,2.00
2022-08-25T01:45:57.829Z,2.20
2022-08-25T01:51:00.662Z,2.00
2022-08-25T01:56:11.844Z,2.40
2022-08-25T02:01:16.699Z,2.28
2022-08-25T02:06:28.769Z,1.83
2022-08-25T02:11:35.788Z,2.20
2022-08-25T02:16:41.473Z,2.20
2022-08-25T02:21:44.628Z,2.47
2022-08-25T02:26:48.744Z,2.28
2022-08-25T02:31:51.071Z,2.35
2022-08-25T02:36:53.437Z,2.47
2022-08-25T02:41:57.237Z,2.08
2022-08-25T02:46:59.781Z,2.08
2022-08-25T02:52:02.292Z,2.22
2022-08-25T02:57:07.765Z,2.55
2022-08-25T03:02:10.131Z,2.22
2022-08-25T03:07:12.376Z,2.70
2022-08-25T03:12:16.471Z,2.42
2022-08-25T03:17:18.791Z,2.60
2022-08-25T03:22:21.100Z,2.58
2022-08-25T03:27:25.211Z,2.47
2022-08-25T03:32:27.617Z,2.58
2022-08-25T03:37:30.028Z,2.70
2022-08-25T03:42:33.827Z,2.83
2022-08-25T03:47:36.154Z,2.78
2022-08-25T03:52:42.390Z,2.75
2022-08-25T03:57:46.761Z,2.92
2022-08-25T04:02:49.367Z,3.10
2022-08-25T04:07:51.762Z,3.08
2022-08-25T04:12:55.609Z,2.95
2022-08-25T04:17:58.253Z,3.30
2022-08-25T04:23:00.554Z,3.22
2022-08-25T04:28:04.608Z,3.50
2022-08-25T04:33:07.193Z,3.55
2022-08-25T04:38:09.555Z,2.92
2022-08-25T04:43:13.341Z,3.05
2022-08-25T04:48:15.601Z,3.83
2022-08-25T04:53:18.905Z,3.45
2022-08-25T04:58:22.767Z,2.88
2022-08-25T05:03:25.124Z,3.67
2022-08-25T05:08:28.021Z,3.55
2022-08-25T05:13:31.884Z,3.60
2022-08-25T05:18:35.091Z,3.33
2022-08-25T05:23:38.383Z,3.00
2022-08-25T05:28:42.775Z,3.55
2022-08-25T05:33:45.723Z,3.38
2022-08-25T05:38:48.196Z,3.75
2022-08-25T05:43:52.080Z,3.88
2022-08-25T05:48:54.922Z,4.25
2022-08-25T05:53:57.199Z,4.80
2022-08-25T05:59:00.972Z,5.20
2022-08-25T06:04:03.784Z,4.90
2022-08-25T06:09:06.387Z,4.65
2022-08-25T06:14:11.698Z,5.85
2022-08-25T06:19:14.351Z,5.57
2022-08-25T06:24:16.652Z,5.93
2022-08-25T06:29:21.099Z,5.70
2022-08-25T06:34:24.290Z,5.43
2022-08-25T06:39:26.825Z,6.35
2022-08-25T06:44:30.591Z,5.22
2022-08-25T06:49:36.044Z,6.68
2022-08-25T06:54:39.082Z,6.00
2022-08-25T06:59:42.851Z,6.03
2022-08-25T07:04:45.329Z,6.32
2022-08-25T07:09:47.684Z,7.15
2022-08-25T07:15:10.061Z,5.90
2022-08-25T07:20:14.514Z,7.07
2022-08-25T07:25:18.044Z,5.30
2022-08-25T07:30:22.195Z,5.78
2022-08-25T07:35:26.279Z,7.35
2022-08-25T07:40:31.199Z,6.40
2022-08-25T07:45:37.900Z,6.07
2022-08-25T07:50:52.620Z,5.93
2022-08-25T07:55:55.145Z,6.47
2022-08-25T08:00:59.107Z,6.93
2022-08-25T08:06:01.571Z,6.93
2022-08-25T08:11:05.281Z,6.75
2022-08-25T08:16:11.337Z,6.22
2022-08-25T08:21:19.157Z,6.43
2022-08-25T08:26:31.709Z,6.07
2022-08-25T08:31:48.349Z,6.45
2022-08-25T08:36:51.509Z,5.78
2022-08-25T08:42:11.434Z,6.13
2022-08-25T08:47:28.840Z,5.60
2022-08-25T08:52:40.741Z,5.80
2022-08-25T09:03:04.876Z,4.75
2022-08-25T09:08:12.267Z,5.10
2022-08-25T09:13:26.284Z,5.07
2022-08-25T09:18:41.227Z,6.10
2022-08-25T09:24:18.067Z,4.55
2022-08-25T09:29:25.443Z,5.22
2022-08-25T09:34:34.461Z,4.65
2022-08-25T09:39:36.827Z,5.60
2022-08-25T09:44:42.508Z,5.40
2022-08-25T09:49:48.829Z,4.78
2022-08-25T09:54:52.907Z,5.53
2022-08-25T09:59:57.628Z,5.10
2022-08-25T10:05:19.426Z,5.27
2022-08-25T10:15:37.780Z,4.80
2022-08-25T10:20:44.801Z,3.63
2022-08-25T10:25:57.835Z,4.25
2022-08-25T10:31:13.124Z,3.90
2022-08-25T10:36:21.647Z,3.72
2022-08-25T10:41:51.247Z,3.75
2022-08-25T10:47:06.170Z,4.15
2022-08-25T10:52:16.496Z,4.22
2022-08-25T10:57:28.614Z,3.70
2022-08-25T11:02:48.759Z,3.90
2022-08-25T11:07:58.908Z,4.25
2022-08-25T11:13:07.962Z,3.85
2022-08-25T11:18:15.219Z,4.35
2022-08-25T11:23:25.616Z,4.03
2022-08-25T11:28:35.981Z,3.90
2022-08-25T11:33:38.669Z,3.83
2022-08-25T11:38:57.649Z,3.70
2022-08-25T11:44:33.529Z,3.95
2022-08-25T11:49:52.934Z,3.42
2022-08-25T11:54:56.840Z,3.88
2022-08-25T12:05:52.353Z,4.13
2022-08-25T12:10:59.608Z,4.20
2022-08-25T12:16:02.544Z,4.30
2022-08-25T12:21:16.623Z,3.40
2022-08-25T12:26:32.266Z,4.10
2022-08-25T12:32:04.900Z,4.63
2022-08-25T12:37:14.508Z,4.53
2022-08-25T12:42:29.259Z,4.80
2022-08-25T12:47:31.889Z,5.13
2022-08-25T12:52:38.216Z,4.80
2022-08-25T12:57:45.786Z,4.90
2022-08-25T13:03:23.662Z,4.97
2022-08-25T13:09:10.547Z,4.63
2022-08-25T13:14:18.834Z,5.32
2022-08-25T13:19:21.940Z,4.70
2022-08-25T13:24:27.219Z,4.82
2022-08-25T13:29:33.270Z,4.20
2022-08-25T13:34:42.513Z,4.50
2022-08-25T13:39:56.225Z,4.30
2022-08-25T13:45:02.635Z,4.22
2022-08-25T13:50:18.387Z,4.72
2022-08-25T13:55:27.402Z,4.43
2022-08-25T14:00:34.829Z,3.80
2022-08-25T14:05:40.406Z,4.57
2022-08-25T14:10:45.970Z,3.80
2022-08-25T14:15:50.019Z,4.38
2022-08-25T14:20:54.786Z,3.85
2022-08-25T14:25:58.191Z,3.83
2022-08-25T14:31:05.603Z,3.97
2022-08-25T14:36:09.234Z,3.55
2022-08-25T14:41:11.721Z,3.60
2022-08-25T14:46:19.727Z,3.70
2022-08-25T14:51:23.248Z,4.00
2022-08-25T14:56:27.686Z,3.80
2022-08-25T15:01:33.462Z,3.40
2022-08-25T15:06:37.328Z,3.65
2022-08-25T15:11:42.877Z,4.15
2022-08-25T15:16:49.587Z,3.55
2022-08-25T15:21:52.158Z,3.63
2022-08-25T15:26:57.198Z,4.30
2022-08-25T15:32:03.828Z,3.50
2022-08-25T15:37:09.590Z,3.60
2022-08-25T15:42:12.928Z,4.07
2022-08-25T15:47:16.835Z,4.10
2022-08-25T15:52:19.546Z,4.05
2022-08-25T15:57:24.300Z,3.78
2022-08-25T16:02:28.783Z,3.95
2022-08-25T16:07:31.197Z,3.75
2022-08-25T16:12:33.626Z,3.58
2022-08-25T16:17:37.524Z,4.28
2022-08-25T16:22:46.099Z,4.40
2022-08-25T16:27:58.463Z,4.47
2022-08-25T16:33:07.826Z,4.10
2022-08-25T16:38:29.483Z,4.15
2022-08-25T16:43:55.044Z,4.32
2022-08-25T16:49:08.175Z,4.53
2022-08-25T16:54:21.977Z,4.28
2022-08-25T16:59:32.144Z,4.00
2022-08-25T17:04:44.942Z,4.28
2022-08-25T17:09:52.192Z,4.35
2022-08-25T17:15:02.880Z,4.47
2022-08-25T17:20:31.971Z,4.07
2022-08-25T17:25:41.282Z,3.85
2022-08-25T17:30:49.651Z,4.07
2022-08-25T17:35:56.303Z,4.28
2022-08-25T17:41:01.343Z,3.80
2022-08-25T17:46:04.525Z,4.05
2022-08-25T17:51:09.544Z,4.50
2022-08-25T17:56:14.450Z,4.88
2022-08-25T18:01:20.038Z,4.55
2022-08-25T18:06:39.884Z,4.60
2022-08-25T18:11:55.780Z,4.68
2022-08-25T18:17:00.346Z,4.25
2022-08-25T18:22:04.244Z,3.95
2022-08-25T18:27:06.676Z,4.22
2022-08-25T18:32:27.905Z,3.85
2022-08-25T18:37:33.337Z,4.57
2022-08-25T18:42:36.329Z,4.20
2022-08-25T18:47:38.735Z,4.85
2022-08-25T18:52:42.546Z,4.78
2022-08-25T18:57:46.057Z,4.03
2022-08-25T19:02:49.229Z,4.35
2022-08-25T19:07:53.495Z,4.25
2022-08-25T19:12:56.892Z,4.32
2022-08-25T19:17:59.896Z,4.35
2022-08-25T19:23:03.735Z,4.80
2022-08-25T19:28:12.246Z,5.13
2022-08-25T19:33:14.784Z,4.95
2022-08-25T19:38:38.955Z,4.78
2022-08-25T19:43:55.522Z,3.92
2022-08-25T19:49:01.571Z,4.78
2022-08-25T19:54:11.097Z,4.55
2022-08-25T19:59:14.143Z,4.40
2022-08-25T20:04:17.304Z,4.75
2022-08-25T20:09:39.278Z,4.10
2022-08-25T20:14:43.649Z,4.35
2022-08-25T20:19:46.212Z,4.10
2022-08-25T20:24:51.075Z,4.50
2022-08-25T20:29:58.709Z,4.05
2022-08-25T20:35:01.911Z,4.30
2022-08-25T20:40:08.532Z,4.53
2022-08-25T20:45:14.089Z,4.57
2022-08-25T20:50:16.980Z,4.45
2022-08-25T20:55:21.619Z,3.90
2022-08-25T21:00:24.969Z,4.68
2022-08-25T21:05:27.548Z,4.18
2022-08-25T21:10:31.525Z,4.05
2022-08-25T21:15:34.024Z,3.80
2022-08-25T21:20:36.660Z,4.95
2022-08-25T21:25:42.550Z,4.90
2022-08-25T21:30:47.434Z,4.70
2022-08-25T21:35:50.319Z,4.15
2022-08-25T21:40:54.630Z,4.63
2022-08-25T21:45:57.082Z,4.30
2022-08-25T21:51:06.771Z,4.32
2022-08-25T21:56:16.935Z,4.10
2022-08-25T22:01:20.893Z,4.53
2022-08-25T22:06:25.104Z,4.10
2022-08-25T22:11:29.162Z,4.35
2022-08-25T22:16:39.862Z,4.15
2022-08-25T22:21:44.023Z,4.30
2022-08-25T22:26:48.580Z,4.05
2022-08-25T22:31:52.930Z,3.90
2022-08-25T22:36:59.696Z,4.28
2022-08-25T22:42:04.647Z,4.07
2022-08-25T22:47:07.991Z,4.32
2022-08-25T22:52:12.743Z,4.10
2022-08-25T22:57:17.368Z,4.25
2022-08-25T23:02:21.226Z,4.05
2022-08-25T23:07:23.663Z,4.10
2022-08-25T23:12:27.578Z,4.10
2022-08-25T23:17:29.992Z,4.00
2022-08-25T23:22:32.327Z,4.20
2022-08-25T23:27:36.821Z,4.00
2022-08-25T23:32:39.205Z,4.15
2022-08-25T23:37:42.051Z,4.07
2022-08-25T23:42:47.608Z,4.40
2022-08-25T23:47:50.067Z,3.75
2022-08-25T23:52:52.455Z,4.38
2022-08-25T23:57:56.188Z,4.20
